Time;durP1;ratioP1;P1;durP2;ratioP2;P2;SDS_P1;SDS_P2;PMS_P1;PMS_P2;Temp;Humidity;BMP_temperature;BMP_pressure;BME280_temperature;BME280_humidity;BME280_pressure;Samples;Min_cycle;Max_cycle;Signal;HPM_P1;HPM_P2
2021/05/05 00:00:59;;;;;;;;;;;;;;;21.12;50.93;99363.13;2097944;28;4023;-35
2021/05/05 00:01:59;;;;;;;;;;;;;;;21.11;50.82;99372.84;2101294;28;4081;-33
2021/05/05 00:03:00;;;;;;;;;;;;;;;21.11;50.95;99370.00;2101446;28;4031;-33
2021/05/05 00:04:01;;;;;;;;;;;;;;;21.12;50.95;99373.69;2101814;28;3883;-32
2021/05/05 00:05:02;;;;;;;;;;;;;;;21.12;51.02;99365.16;2102098;28;4148;-31
2021/05/05 00:06:03;;;;;;;;;;;;;;;21.12;50.98;99359.50;2100114;28;4048;-31
2021/05/05 00:07:04;;;;;;;;;;;;;;;21.11;50.88;99358.63;2100669;28;4056;-31
2021/05/05 00:08:04;;;;;;;;;;;;;;;21.11;50.82;99358.63;2102338;28;4026;-31
2021/05/05 00:09:05;;;;;;;;;;;;;;;21.12;50.89;99365.16;2101750;28;6237;-31
2021/05/05 00:10:06;;;;;;;;;;;;;;;21.12;50.73;99365.16;2102039;28;4083;-31
2021/05/05 00:11:06;;;;;;;;;;;;;;;21.12;50.85;99362.31;2101162;28;4026;-32
2021/05/05 00:12:07;;;;;;;;;;;;;;;21.12;50.75;99365.16;2101430;28;4022;-30
2021/05/05 00:13:08;;;;;;;;;;;;;;;21.13;50.78;99355.41;2102464;28;3892;-33
2021/05/05 00:14:09;;;;;;;;;;;;;;;21.11;50.89;99361.47;2100348;28;4122;-29
2021/05/05 00:15:09;;;;;;;;;;;;;;;21.12;50.74;99356.63;2100748;28;4111;-32
2021/05/05 00:16:10;;;;;;;;;;;;;;;21.11;50.89;99349.31;2101922;28;4058;-31
2021/05/05 00:17:11;;;;;;;;;;;;;;;21.11;50.90;99352.13;2102384;28;4055;-32
2021/05/05 00:18:12;;;;;;;;;;;;;;;21.11;50.79;99346.47;2101379;28;3884;-32
2021/05/05 00:19:13;;;;;;;;;;;;;;;21.11;50.75;99357.81;2101192;28;3875;-30
2021/05/05 00:20:14;;;;;;;;;;;;;;;21.11;50.87;99355.78;2101346;28;4039;-30
2021/05/05 00:21:15;;;;;;;;;;;;;;;21.10;50.92;99356.22;2102485;28;4008;-29
2021/05/05 00:22:15;;;;;;;;;;;;;;;21.10;50.67;99357.03;2100728;28;3906;-32
2021/05/05 00:23:16;;;;;;;;;;;;;;;21.10;50.90;99351.34;2101545;28;4068;-32
2021/05/05 00:24:17;;;;;;;;;;;;;;;21.11;50.79;99357.81;2102118;28;4103;-32
2021/05/05 00:25:18;;;;;;;;;;;;;;;21.11;50.73;99357.81;2101937;28;3909;-31
2021/05/05 00:26:18;;;;;;;;;;;;;;;21.10;50.70;99356.22;2102322;28;3863;-31
2021/05/05 00:27:19;;;;;;;;;;;;;;;21.10;50.85;99353.38;2099774;28;4023;-29
2021/05/05 00:28:20;;;;;;;;;;;;;;;21.10;50.66;99351.34;2101632;28;3868;-32
2021/05/05 00:29:21;;;;;;;;;;;;;;;21.09;50.68;99351.75;2101808;28;3859;-30
2021/05/05 00:30:21;;;;;;;;;;;;;;;21.11;50.83;99355.00;2100879;28;3995;-31
2021/05/05 00:31:23;;;;;;;;;;;;;;;21.10;50.59;99351.34;2100634;28;3864;-30
2021/05/05 00:32:24;;;;;;;;;;;;;;;21.10;50.67;99354.16;2101256;28;4061;-31
2021/05/05 00:33:25;;;;;;;;;;;;;;;21.09;50.76;99357.44;2100788;28;4066;-28
2021/05/05 00:34:25;;;;;;;;;;;;;;;21.09;50.75;99355.41;2099804;28;4151;-31
2021/05/05 00:35:29;;;;;;;;;;;;;;;21.08;50.80;99352.94;2101811;28;4029;-31
2021/05/05 00:36:36;;;;;;;;;;;;;;;21.09;50.66;99355.41;2101185;28;3872;-31
2021/05/05 00:37:37;;;;;;;;;;;;;;;21.09;50.67;99354.59;2101274;28;3906;-31
2021/05/05 00:38:38;;;;;;;;;;;;;;;21.09;50.74;99358.25;2100920;28;4168;-33
2021/05/05 00:39:39;;;;;;;;;;;;;;;21.09;50.82;99346.06;2102059;28;4094;-31
2021/05/05 00:40:40;;;;;;;;;;;;;;;21.09;50.63;99344.03;2100839;28;6094;-31
2021/05/05 00:41:41;;;;;;;;;;;;;;;21.10;50.72;99344.84;2100073;28;3883;-28
2021/05/05 00:42:42;;;;;;;;;;;;;;;21.09;50.71;99335.50;2101508;28;3825;-28
2021/05/05 00:43:42;;;;;;;;;;;;;;;21.09;50.68;99341.19;2101187;28;4030;-29
2021/05/05 00:44:43;;;;;;;;;;;;;;;21.09;50.60;99341.19;2101681;28;3861;-32
2021/05/05 00:45:44;;;;;;;;;;;;;;;21.09;50.75;99337.53;2102115;28;3786;-31
2021/05/05 00:46:45;;;;;;;;;;;;;;;21.09;50.84;99337.53;2101586;28;3967;-32
2021/05/05 00:47:45;;;;;;;;;;;;;;;21.08;50.78;99339.53;2099609;28;4016;-28
2021/05/05 00:48:46;;;;;;;;;;;;;;;21.10;50.71;99339.97;2102131;28;3991;-32
2021/05/05 00:49:47;;;;;;;;;;;;;;;21.09;50.76;99341.19;2101875;28;3997;-30
2021/05/05 00:50:48;;;;;;;;;;;;;;;21.10;50.71;99344.84;2101491;28;4086;-32
2021/05/05 00:51:48;;;;;;;;;;;;;;;21.10;50.86;99353.38;2101778;28;3999;-34
2021/05/05 00:52:49;;;;;;;;;;;;;;;21.08;50.83;99336.69;2100759;28;4018;-31
2021/05/05 00:53:50;;;;;;;;;;;;;;;21.08;50.81;99342.38;2100681;28;4103;-33
2021/05/05 00:54:51;;;;;;;;;;;;;;;21.09;50.75;99343.22;2101206;28;4141;-31
2021/05/05 00:55:51;;;;;;;;;;;;;;;21.09;50.68;99346.06;2101675;28;3860;-31
2021/05/05 00:56:52;;;;;;;;;;;;;;;21.08;50.73;99341.56;2100592;28;4008;-32
2021/05/05 00:57:53;;;;;;;;;;;;;;;21.09;50.84;99351.75;2101710;28;3962;-29
2021/05/05 00:58:54;;;;;;;;;;;;;;;21.10;50.83;99353.38;2098594;28;3814;-34
2021/05/05 00:59:54;;;;;;;;;;;;;;;21.09;50.73;99343.22;2101650;28;3865;-31
2021/05/05 01:00:55;;;;;;;;;;;;;;;21.09;50.69;99346.88;2101602;28;3820;-30
2021/05/05 01:01:56;;;;;;;;;;;;;;;21.10;50.76;99356.22;2100104;28;4012;-33
2021/05/05 01:02:57;;;;;;;;;;;;;;;21.09;50.67;99352.53;2101478;28;4243;-31
2021/05/05 01:03:58;;;;;;;;;;;;;;;21.09;50.89;99354.59;2100248;28;3894;-31
2021/05/05 01:05:00;;;;;;;;;;;;;;;21.07;50.86;99349.28;2100503;28;4044;-34
2021/05/05 01:06:01;;;;;;;;;;;;;;;21.08;50.78;99348.06;2101444;28;4046;-29
2021/05/05 01:07:02;;;;;;;;;;;;;;;21.08;50.81;99344.41;2101104;28;4041;-36
2021/05/05 01:08:03;;;;;;;;;;;;;;;21.08;50.71;99348.06;2101403;28;3859;-28
2021/05/05 01:09:03;;;;;;;;;;;;;;;21.08;50.78;99347.25;2098321;28;4086;-30
2021/05/05 01:10:04;;;;;;;;;;;;;;;21.08;50.85;99355.78;2099287;28;4120;-32
2021/05/05 01:11:05;;;;;;;;;;;;;;;21.08;50.76;99347.25;2101428;28;3903;-31
2021/05/05 01:12:06;;;;;;;;;;;;;;;21.09;50.75;99346.88;2101593;28;4094;-32
2021/05/05 01:13:06;;;;;;;;;;;;;;;21.09;50.82;99343.22;2101454;28;4006;-30
2021/05/05 01:14:07;;;;;;;;;;;;;;;21.08;51.01;99341.56;2098871;28;4056;-31
2021/05/05 01:15:08;;;;;;;;;;;;;;;21.08;50.94;99335.88;2099773;28;3881;-32
2021/05/05 01:16:08;;;;;;;;;;;;;;;21.07;50.98;99328.56;2101515;28;3897;-32
2021/05/05 01:17:09;;;;;;;;;;;;;;;21.08;50.91;99336.69;2101007;28;4283;-31
2021/05/05 01:18:11;;;;;;;;;;;;;;;21.08;51.04;99333.03;2098199;28;3894;-33
2021/05/05 01:19:12;;;;;;;;;;;;;;;21.07;50.81;99335.06;2102235;28;4949;-30
2021/05/05 01:20:13;;;;;;;;;;;;;;;21.07;50.83;99335.06;2101526;28;3887;-33
2021/05/05 01:21:14;;;;;;;;;;;;;;;21.07;50.97;99329.38;2101702;28;4035;-32
2021/05/05 01:22:15;;;;;;;;;;;;;;;21.08;50.99;99339.53;2101789;28;4011;-30
2021/05/05 01:23:15;;;;;;;;;;;;;;;21.09;51.00;99340.38;2101865;28;4085;-32
2021/05/05 01:24:16;;;;;;;;;;;;;;;21.08;50.88;99331.00;2099235;28;4050;-34
2021/05/05 01:25:18;;;;;;;;;;;;;;;21.08;50.91;99333.03;2101875;28;4018;-33
2021/05/05 01:26:19;;;;;;;;;;;;;;;21.08;50.87;99330.19;2100890;28;4025;-30
2021/05/05 01:27:20;;;;;;;;;;;;;;;21.08;50.80;99336.69;2100312;28;3903;-31
2021/05/05 01:28:21;;;;;;;;;;;;;;;21.07;51.07;99335.06;2098832;28;3890;-31
2021/05/05 01:29:21;;;;;;;;;;;;;;;21.08;50.88;99333.03;2100128;28;4049;-33
2021/05/05 01:30:22;;;;;;;;;;;;;;;21.07;50.95;99334.25;2099216;28;4052;-32
2021/05/05 01:31:23;;;;;;;;;;;;;;;21.07;50.88;99334.25;2098712;28;4069;-29
2021/05/05 01:32:24;;;;;;;;;;;;;;;21.08;50.85;99338.72;2101354;28;4121;-30
2021/05/05 01:33:25;;;;;;;;;;;;;;;21.08;50.84;99330.19;2101748;28;3882;-32
2021/05/05 01:34:25;;;;;;;;;;;;;;;21.08;50.86;99333.03;2101265;28;4026;-32
2021/05/05 01:35:26;;;;;;;;;;;;;;;21.08;50.96;99335.88;2100173;28;4067;-36
2021/05/05 01:36:27;;;;;;;;;;;;;;;21.07;50.87;99337.09;2100708;28;4080;-32
2021/05/05 01:37:27;;;;;;;;;;;;;;;21.07;50.94;99322.88;2093658;28;4017;-32
2021/05/05 01:38:28;;;;;;;;;;;;;;;21.07;50.78;99334.25;2101092;28;3905;-29
2021/05/05 01:39:29;;;;;;;;;;;;;;;21.07;50.98;99323.69;2100993;28;4055;-32
2021/05/05 01:40:30;;;;;;;;;;;;;;;21.07;50.99;99328.56;2098524;28;4022;-33
2021/05/05 01:41:31;;;;;;;;;;;;;;;21.06;50.82;99318.38;2100390;28;4025;-31
2021/05/05 01:42:32;;;;;;;;;;;;;;;21.07;50.86;99320.03;2101657;28;4051;-34
2021/05/05 01:43:32;;;;;;;;;;;;;;;21.06;50.80;99322.06;2101924;28;4039;-29
2021/05/05 01:44:33;;;;;;;;;;;;;;;21.07;50.84;99334.25;2101388;28;4019;-33
2021/05/05 01:45:34;;;;;;;;;;;;;;;21.06;50.84;99326.91;2101433;28;4018;-33
2021/05/05 01:46:35;;;;;;;;;;;;;;;21.06;50.96;99333.44;2101492;28;3962;-31
2021/05/05 01:47:36;;;;;;;;;;;;;;;21.07;50.96;99322.88;2099500;28;4205;-33
2021/05/05 01:48:37;;;;;;;;;;;;;;;21.06;50.87;99327.75;2100925;28;4156;-31
2021/05/05 01:49:38;;;;;;;;;;;;;;;21.06;51.04;99326.91;2100762;28;3905;-29
2021/05/05 01:50:38;;;;;;;;;;;;;;;21.06;50.94;99332.59;2101455;28;4013;-32
2021/05/05 01:51:39;;;;;;;;;;;;;;;21.06;50.99;99329.75;2101593;28;3929;-32
2021/05/05 01:52:40;;;;;;;;;;;;;;;21.06;50.95;99324.06;2101746;28;4082;-33
2021/05/05 01:53:41;;;;;;;;;;;;;;;21.06;50.78;99324.06;2101517;28;4003;-29
2021/05/05 01:54:41;;;;;;;;;;;;;;;21.05;50.92;99323.25;2101938;28;4015;-33
2021/05/05 01:55:42;;;;;;;;;;;;;;;21.05;50.84;99331.78;2100966;28;3884;-34
2021/05/05 01:56:43;;;;;;;;;;;;;;;21.05;51.00;99331.78;2101869;28;5079;-34
2021/05/05 01:57:44;;;;;;;;;;;;;;;21.06;50.88;99326.91;2100878;28;4003;-29
2021/05/05 01:58:44;;;;;;;;;;;;;;;21.05;50.99;99328.13;2101036;28;4077;-29
2021/05/05 01:59:45;;;;;;;;;;;;;;;21.06;50.98;99326.91;2100638;28;3753;-31
2021/05/05 02:00:46;;;;;;;;;;;;;;;21.05;50.76;99326.09;2101695;28;3996;-32
2021/05/05 02:01:47;;;;;;;;;;;;;;;21.06;50.92;99329.75;2101806;28;3885;-32
2021/05/05 02:02:47;;;;;;;;;;;;;;;21.06;50.76;99321.22;2100372;28;4103;-30
2021/05/05 02:03:48;;;;;;;;;;;;;;;21.05;50.80;99325.28;2101252;28;4049;-32
2021/05/05 02:04:49;;;;;;;;;;;;;;;21.04;50.93;99327.31;2092675;28;4010;-32
2021/05/05 02:05:50;;;;;;;;;;;;;;;21.04;50.92;99324.47;2091897;28;4047;-31
2021/05/05 02:06:50;;;;;;;;;;;;;;;21.05;50.73;99325.28;2097347;28;4107;-30
2021/05/05 02:07:51;;;;;;;;;;;;;;;21.05;50.81;99325.28;2100335;28;4351;-29
2021/05/05 02:08:52;;;;;;;;;;;;;;;21.05;50.90;99319.59;2101598;28;3819;-30
2021/05/05 02:09:53;;;;;;;;;;;;;;;21.05;50.85;99326.09;2100143;28;3812;-32
2021/05/05 02:10:54;;;;;;;;;;;;;;;21.04;50.76;99318.78;2101363;28;4055;-33
2021/05/05 02:11:55;;;;;;;;;;;;;;;21.04;50.73;99324.47;2100894;28;3978;-31
2021/05/05 02:12:55;;;;;;;;;;;;;;;21.04;50.69;99321.63;2099940;28;3770;-29
2021/05/05 02:13:56;;;;;;;;;;;;;;;21.06;50.71;99315.53;2101647;28;4753;-33
2021/05/05 02:14:57;;;;;;;;;;;;;;;21.05;50.85;99319.59;2100790;28;3900;-30
2021/05/05 02:15:57;;;;;;;;;;;;;;;21.05;50.91;99325.28;2101386;28;3893;-32
2021/05/05 02:16:58;;;;;;;;;;;;;;;21.05;50.73;99326.09;2100199;28;3897;-33
2021/05/05 02:17:59;;;;;;;;;;;;;;;21.04;50.86;99324.47;2101699;28;3891;-30
2021/05/05 02:19:00;;;;;;;;;;;;;;;21.04;50.73;99326.50;2101430;28;4107;-34
2021/05/05 02:20:01;;;;;;;;;;;;;;;21.05;50.75;99325.28;2100605;28;4017;-32
2021/05/05 02:21:02;;;;;;;;;;;;;;;21.04;50.69;99329.34;2099851;28;4075;-34
2021/05/05 02:22:02;;;;;;;;;;;;;;;21.04;50.82;99323.66;2100681;28;4074;-31
2021/05/05 02:23:03;;;;;;;;;;;;;;;21.05;50.90;99325.28;2101532;28;4177;-30
2021/05/05 02:24:04;;;;;;;;;;;;;;;21.04;50.66;99327.31;2101658;28;4129;-31
2021/05/05 02:25:05;;;;;;;;;;;;;;;21.04;50.69;99323.66;2099643;28;3900;-32
2021/05/05 02:26:05;;;;;;;;;;;;;;;21.04;50.65;99317.97;2101552;28;4071;-32
2021/05/05 02:27:06;;;;;;;;;;;;;;;21.04;50.84;99327.31;2101205;28;3889;-31
2021/05/05 02:28:09;;;;;;;;;;;;;;;21.03;50.76;99322.81;2101433;28;3850;-30
2021/05/05 02:29:10;;;;;;;;;;;;;;;21.03;50.72;99328.50;2101869;28;4051;-32
2021/05/05 02:30:10;;;;;;;;;;;;;;;21.04;50.78;99323.66;2101702;28;4778;-31
2021/05/05 02:31:11;;;;;;;;;;;;;;;21.05;50.85;99328.13;2099541;28;4027;-31
2021/05/05 02:32:12;;;;;;;;;;;;;;;21.03;50.79;99322.00;2100332;28;4082;-33
2021/05/05 02:33:13;;;;;;;;;;;;;;;21.04;50.88;99320.81;2100742;28;3865;-33
2021/05/05 02:34:14;;;;;;;;;;;;;;;21.03;51.03;99317.13;2101734;28;4037;-32
2021/05/05 02:35:14;;;;;;;;;;;;;;;21.04;50.82;99323.66;2099081;28;4042;-31
2021/05/05 02:36:15;;;;;;;;;;;;;;;21.03;50.89;99319.16;2100043;28;3893;-31
2021/05/05 02:37:16;;;;;;;;;;;;;;;21.04;50.96;99312.28;2101424;28;3891;-31
2021/05/05 02:38:18;;;;;;;;;;;;;;;21.03;50.92;99313.47;2101653;28;4081;-32
2021/05/05 02:39:19;;;;;;;;;;;;;;;21.04;51.06;99320.81;2100505;28;3960;-30
2021/05/05 02:40:19;;;;;;;;;;;;;;;21.02;50.87;99318.34;2100471;28;4037;-34
2021/05/05 02:41:20;;;;;;;;;;;;;;;21.03;50.89;99319.16;2101012;28;3897;-31
2021/05/05 02:42:21;;;;;;;;;;;;;;;21.04;51.08;99312.28;2099220;28;3890;-32
2021/05/05 02:43:21;;;;;;;;;;;;;;;21.04;51.09;99315.13;2101106;28;3893;-35
2021/05/05 02:44:22;;;;;;;;;;;;;;;21.04;50.88;99312.28;2101884;28;4043;-28
2021/05/05 02:45:23;;;;;;;;;;;;;;;21.03;51.02;99314.28;2101246;28;4027;-29
2021/05/05 02:46:24;;;;;;;;;;;;;;;21.03;50.84;99313.47;2101388;28;4041;-28
2021/05/05 02:47:24;;;;;;;;;;;;;;;21.04;51.03;99315.13;2101160;28;3896;-31
2021/05/05 02:48:25;;;;;;;;;;;;;;;21.03;50.94;99310.63;2101982;28;4011;-32
2021/05/05 02:49:26;;;;;;;;;;;;;;;21.03;50.97;99304.94;2101837;28;3828;-33
2021/05/05 02:50:27;;;;;;;;;;;;;;;21.03;50.81;99304.94;2101448;28;4067;-34
2021/05/05 02:51:27;;;;;;;;;;;;;;;21.03;50.87;99304.94;2100768;28;4073;-33
2021/05/05 02:52:28;;;;;;;;;;;;;;;21.03;51.08;99305.75;2101661;28;3865;-31
2021/05/05 02:53:29;;;;;;;;;;;;;;;21.03;50.95;99308.59;2100784;28;3988;-32
2021/05/05 02:54:30;;;;;;;;;;;;;;;21.05;51.13;99302.53;2100738;28;4045;-31
2021/05/05 02:55:31;;;;;;;;;;;;;;;21.05;50.94;99299.69;2100670;28;4065;-33
2021/05/05 02:56:32;;;;;;;;;;;;;;;21.05;51.03;99305.38;2101665;28;4071;-32
2021/05/05 02:57:33;;;;;;;;;;;;;;;21.04;51.01;99301.72;2101330;28;4030;-28
2021/05/05 02:58:33;;;;;;;;;;;;;;;21.04;51.15;99301.72;2101146;28;3820;-30
2021/05/05 02:59:34;;;;;;;;;;;;;;;21.05;51.06;99302.53;2101410;28;4050;-33
2021/05/05 03:00:35;;;;;;;;;;;;;;;21.05;51.12;99305.38;2100538;28;3860;-30
2021/05/05 03:01:36;;;;;;;;;;;;;;;21.04;51.02;99304.56;2101241;28;4208;-33
2021/05/05 03:02:37;;;;;;;;;;;;;;;21.03;51.10;99297.22;2101056;28;4040;-31
2021/05/05 03:03:38;;;;;;;;;;;;;;;21.03;51.08;99308.59;2099837;28;3877;-30
2021/05/05 03:04:38;;;;;;;;;;;;;;;21.04;51.09;99301.72;2101347;28;4011;-30
2021/05/05 03:05:39;;;;;;;;;;;;;;;21.04;51.04;99298.06;2100627;28;4087;-31
2021/05/05 03:06:40;;;;;;;;;;;;;;;21.03;50.98;99294.38;2099886;28;4002;-32
2021/05/05 03:07:40;;;;;;;;;;;;;;;21.03;50.83;99300.06;2097473;28;3837;-33
2021/05/05 03:08:41;;;;;;;;;;;;;;;21.03;50.83;99304.94;2100653;28;4013;-33
2021/05/05 03:09:42;;;;;;;;;;;;;;;21.03;50.85;99307.78;2101061;28;4059;-31
2021/05/05 03:10:42;;;;;;;;;;;;;;;21.02;51.00;99298.44;2100752;28;3818;-29
2021/05/05 03:11:44;;;;;;;;;;;;;;;21.03;50.95;99302.09;2101566;28;4032;-30
2021/05/05 03:12:44;;;;;;;;;;;;;;;21.03;50.79;99304.94;2100104;28;4036;-33
2021/05/05 03:13:45;;;;;;;;;;;;;;;21.03;50.94;99308.59;2100704;28;3986;-31
2021/05/05 03:14:46;;;;;;;;;;;;;;;21.04;50.82;99303.75;2101688;28;4224;-30
2021/05/05 03:15:46;;;;;;;;;;;;;;;21.04;51.01;99295.22;2097691;28;3815;-30
2021/05/05 03:16:47;;;;;;;;;;;;;;;21.03;50.82;99305.75;2101013;28;4010;-31
2021/05/05 03:17:48;;;;;;;;;;;;;;;21.04;50.80;99303.75;2100008;28;3999;-29
2021/05/05 03:18:51;;;;;;;;;;;;;;;21.04;50.83;99295.22;2101431;28;3958;-34
2021/05/05 03:19:52;;;;;;;;;;;;;;;21.04;50.82;99298.06;2101281;28;4012;-31
2021/05/05 03:20:53;;;;;;;;;;;;;;;21.05;50.92;99296.84;2100767;28;4001;-32
2021/05/05 03:21:53;;;;;;;;;;;;;;;21.04;50.84;99300.91;2100258;28;4035;-32
2021/05/05 03:22:54;;;;;;;;;;;;;;;21.04;50.81;99301.72;2100283;28;3951;-33
2021/05/05 03:23:55;;;;;;;;;;;;;;;21.03;50.74;99294.38;2101625;28;4004;-28
2021/05/05 03:24:55;;;;;;;;;;;;;;;21.03;50.97;99291.53;2101352;28;3903;-31
2021/05/05 03:25:56;;;;;;;;;;;;;;;21.04;51.02;99295.22;2098409;28;5728;-34
2021/05/05 03:26:57;;;;;;;;;;;;;;;21.04;50.94;99300.91;2101011;28;3877;-33
2021/05/05 03:27:58;;;;;;;;;;;;;;;21.04;50.88;99295.22;2103199;28;4012;-35
2021/05/05 03:28:58;;;;;;;;;;;;;;;21.03;51.03;99300.06;2102640;28;4088;-32
2021/05/05 03:29:59;;;;;;;;;;;;;;;21.04;50.93;99296.03;2102103;28;4069;-34
2021/05/05 03:31:00;;;;;;;;;;;;;;;21.04;50.94;99295.22;2103138;28;3864;-33
2021/05/05 03:32:01;;;;;;;;;;;;;;;21.04;51.02;99300.91;2102369;28;4100;-33
2021/05/05 03:33:01;;;;;;;;;;;;;;;21.04;50.82;99295.22;2102648;28;4089;-34
2021/05/05 03:34:02;;;;;;;;;;;;;;;21.05;51.00;99302.53;2102430;28;4022;-34
2021/05/05 03:35:03;;;;;;;;;;;;;;;21.04;50.97;99301.72;2101880;28;4032;-30
2021/05/05 03:36:04;;;;;;;;;;;;;;;21.05;50.91;99294.00;2101112;28;4046;-30
2021/05/05 03:37:05;;;;;;;;;;;;;;;21.04;50.87;99298.06;2101926;28;4092;-31
2021/05/05 03:38:06;;;;;;;;;;;;;;;21.05;50.96;99296.84;2102931;28;4031;-31
2021/05/05 03:39:06;;;;;;;;;;;;;;;21.04;50.95;99295.22;2102202;28;4073;-31
2021/05/05 03:40:07;;;;;;;;;;;;;;;21.05;50.90;99294.00;2102747;28;4011;-31
2021/05/05 03:41:08;;;;;;;;;;;;;;;21.04;51.02;99298.88;2101006;28;4018;-33
2021/05/05 03:42:09;;;;;;;;;;;;;;;21.04;50.88;99304.56;2101452;28;4037;-33
2021/05/05 03:43:09;;;;;;;;;;;;;;;21.05;50.93;99296.84;2101872;28;3918;-31
2021/05/05 03:44:10;;;;;;;;;;;;;;;21.04;51.01;99293.19;2101189;28;3899;-31
2021/05/05 03:45:11;;;;;;;;;;;;;;;21.04;51.15;99290.34;2101623;28;4798;-36
2021/05/05 03:46:12;;;;;;;;;;;;;;;21.04;51.12;99301.72;2101712;28;4009;-30
2021/05/05 03:47:12;;;;;;;;;;;;;;;21.04;51.03;99295.22;2100838;28;4135;-32
2021/05/05 03:48:14;;;;;;;;;;;;;;;21.05;51.03;99305.38;2102595;28;3932;-30
2021/05/05 03:49:15;;;;;;;;;;;;;;;21.04;51.07;99293.19;2102214;28;3926;-34
2021/05/05 03:50:16;;;;;;;;;;;;;;;21.05;51.28;99294.81;2102786;28;4033;-33
2021/05/05 03:51:17;;;;;;;;;;;;;;;21.06;51.38;99292.78;2102965;28;4066;-31
2021/05/05 03:52:17;;;;;;;;;;;;;;;21.05;51.20;99291.16;2102484;28;4152;-35
2021/05/05 03:53:18;;;;;;;;;;;;;;;21.06;51.25;99289.94;2103493;28;4301;-36
2021/05/05 03:54:19;;;;;;;;;;;;;;;21.05;51.12;99291.97;2102471;28;4043;-29
2021/05/05 03:55:20;;;;;;;;;;;;;;;21.06;51.23;99292.78;2102970;28;4047;-31
2021/05/05 03:56:20;;;;;;;;;;;;;;;21.06;51.34;99287.09;2101089;28;4022;-33
2021/05/05 03:57:21;;;;;;;;;;;;;;;21.06;51.32;99289.94;2102773;28;4076;-32
2021/05/05 03:58:22;;;;;;;;;;;;;;;21.06;51.16;99292.78;2102992;28;4042;-34
2021/05/05 03:59:22;;;;;;;;;;;;;;;21.06;51.16;99292.78;2102550;28;4093;-34
2021/05/05 04:00:23;;;;;;;;;;;;;;;21.05;51.31;99305.38;2101930;28;4049;-29
2021/05/05 04:01:24;;;;;;;;;;;;;;;21.05;51.41;99294.81;2103077;28;3908;-33
2021/05/05 04:02:25;;;;;;;;;;;;;;;21.05;51.21;99296.84;2102861;28;3895;-29
2021/05/05 04:03:26;;;;;;;;;;;;;;;21.05;51.33;99294.81;2101867;28;3869;-35
2021/05/05 04:04:27;;;;;;;;;;;;;;;21.06;51.20;99298.47;2100996;28;4080;-30
2021/05/05 04:05:27;;;;;;;;;;;;;;;21.06;51.48;99307.00;2103032;28;3877;-30
2021/05/05 04:06:28;;;;;;;;;;;;;;;21.05;51.45;99306.19;2100481;28;3901;-36
2021/05/05 04:07:29;;;;;;;;;;;;;;;21.06;51.47;99301.31;2101132;28;3881;-32
2021/05/05 04:08:30;;;;;;;;;;;;;;;21.07;51.50;99302.97;2101933;28;3873;-32
2021/05/05 04:09:31;;;;;;;;;;;;;;;21.06;51.41;99299.31;2101855;28;4033;-32
2021/05/05 04:10:32;;;;;;;;;;;;;;;21.05;51.45;99291.97;2101055;28;4122;-34
2021/05/05 04:11:33;;;;;;;;;;;;;;;21.06;51.54;99307.00;2101899;28;4056;-33
2021/05/05 04:12:34;;;;;;;;;;;;;;;21.06;51.48;99301.31;2102387;28;3824;-32
2021/05/05 04:13:53;;;;;;;;;;;;;;;21.06;51.35;99310.69;2093819;28;3992;-31
2021/05/05 04:15:12;;;;;;;;;;;;;;;21.06;51.42;99304.16;2093955;28;4785;-30
2021/05/05 04:16:31;;;;;;;;;;;;;;;21.06;51.34;99304.16;2094986;28;3848;-29
2021/05/05 04:17:50;;;;;;;;;;;;;;;21.06;51.37;99305.00;2103085;28;3818;-29
2021/05/05 04:19:09;;;;;;;;;;;;;;;21.06;51.38;99304.16;2102238;28;4818;-36
2021/05/05 04:20:28;;;;;;;;;;;;;;;21.07;51.47;99305.81;2102943;28;3890;-31
2021/05/05 04:21:47;;;;;;;;;;;;;;;21.06;51.50;99309.84;2102104;28;4015;-31
2021/05/05 04:23:06;;;;;;;;;;;;;;;21.06;51.29;99316.38;2101974;28;4753;-30
2021/05/05 04:24:36;;;;;;;;;;;;;;;21.06;51.28;99310.69;2075481;28;4209;-32
2021/05/05 04:25:37;;;;;;;;;;;;;;;21.05;51.38;99309.03;2076582;28;4036;-30
2021/05/05 04:26:38;;;;;;;;;;;;;;;21.05;51.29;99302.53;2075048;28;3860;-28
2021/05/05 04:27:38;;;;;;;;;;;;;;;21.05;51.27;99308.22;2076179;28;4006;-28
2021/05/05 04:28:39;;;;;;;;;;;;;;;21.05;51.29;99308.22;2076508;28;3859;-29
2021/05/05 04:29:40;;;;;;;;;;;;;;;21.05;51.33;99316.75;2075601;28;3875;-32
2021/05/05 04:30:41;;;;;;;;;;;;;;;21.05;51.33;99323.25;2076571;28;3978;-31
2021/05/05 04:31:41;;;;;;;;;;;;;;;21.04;51.17;99313.09;2076136;28;4206;-30
2021/05/05 04:32:43;;;;;;;;;;;;;;;21.05;51.27;99313.91;2077053;28;4063;-31
2021/05/05 04:33:45;;;;;;;;;;;;;;;21.04;51.09;99320.81;2075948;28;4066;-31
2021/05/05 04:34:46;;;;;;;;;;;;;;;21.04;51.10;99317.97;2074989;28;4022;-32
2021/05/05 04:35:47;;;;;;;;;;;;;;;21.04;51.29;99315.13;2075820;28;3911;-32
2021/05/05 04:36:48;;;;;;;;;;;;;;;21.05;51.33;99313.91;2076117;28;3892;-33
2021/05/05 04:37:48;;;;;;;;;;;;;;;21.05;51.17;99314.72;2075695;28;3889;-29
2021/05/05 04:38:49;;;;;;;;;;;;;;;21.05;51.13;99314.72;2075065;28;4020;-31
2021/05/05 04:39:50;;;;;;;;;;;;;;;21.05;51.25;99314.72;2076168;28;4010;-32
2021/05/05 04:40:50;;;;;;;;;;;;;;;21.05;51.30;99308.22;2076747;28;3874;-29
2021/05/05 04:41:51;;;;;;;;;;;;;;;21.05;51.14;99309.03;2076208;28;3989;-29
2021/05/05 04:42:52;;;;;;;;;;;;;;;21.05;51.28;99309.03;2076641;28;3840;-30
2021/05/05 04:43:53;;;;;;;;;;;;;;;21.05;51.27;99306.19;2076404;28;3865;-30
2021/05/05 04:44:53;;;;;;;;;;;;;;;21.06;51.13;99309.84;2075547;28;4000;-32
2021/05/05 04:45:54;;;;;;;;;;;;;;;21.05;51.22;99311.88;2075768;28;3962;-32
2021/05/05 04:46:55;;;;;;;;;;;;;;;21.05;51.20;99302.53;2076742;28;3871;-33
2021/05/05 04:47:56;;;;;;;;;;;;;;;21.05;51.17;99305.38;2076562;28;3971;-32
2021/05/05 04:48:57;;;;;;;;;;;;;;;21.05;51.26;99302.53;2075147;28;4770;-30
2021/05/05 04:49:57;;;;;;;;;;;;;;;21.05;51.09;99309.03;2075501;28;4171;-32
2021/05/05 04:50:58;;;;;;;;;;;;;;;21.03;51.09;99308.59;2075275;28;3898;-32
2021/05/05 04:51:59;;;;;;;;;;;;;;;21.05;51.43;99311.88;2075843;28;3890;-33
2021/05/05 04:53:00;;;;;;;;;;;;;;;21.05;51.11;99299.69;2076225;28;3899;-30
2021/05/05 04:54:00;;;;;;;;;;;;;;;21.07;51.32;99308.66;2075168;28;4057;-31
2021/05/05 04:55:01;;;;;;;;;;;;;;;21.05;51.23;99309.03;2075931;28;4067;-34
2021/05/05 04:56:02;;;;;;;;;;;;;;;21.06;51.21;99315.53;2083180;28;4030;-33
2021/05/05 04:57:02;;;;;;;;;;;;;;;21.06;51.33;99318.38;2098818;28;3861;-30
2021/05/05 04:58:03;;;;;;;;;;;;;;;21.06;51.32;99313.53;2101658;28;4043;-31
2021/05/05 04:59:04;;;;;;;;;;;;;;;21.06;51.42;99310.69;2102355;28;4097;-30
2021/05/05 05:00:05;;;;;;;;;;;;;;;21.07;51.49;99314.34;2101242;28;3954;-31
2021/05/05 05:01:05;;;;;;;;;;;;;;;21.09;51.53;99311.94;2101944;28;3881;-35
2021/05/05 05:02:08;;;;;;;;;;;;;;;21.08;51.52;99301.75;2102815;28;4049;-32
2021/05/05 05:03:08;;;;;;;;;;;;;;;21.07;51.40;99311.50;2098816;28;3906;-35
2021/05/05 05:04:09;;;;;;;;;;;;;;;21.07;51.37;99315.16;2102249;28;3885;-32
2021/05/05 05:05:10;;;;;;;;;;;;;;;21.07;51.48;99317.19;2101446;28;3868;-30
2021/05/05 05:06:11;;;;;;;;;;;;;;;21.06;51.25;99315.53;2101227;28;4065;-29
2021/05/05 05:07:11;;;;;;;;;;;;;;;21.07;51.38;99318.00;2101505;28;3909;-32
2021/05/05 05:08:13;;;;;;;;;;;;;;;21.06;51.35;99309.84;2100671;28;4155;-33
2021/05/05 05:09:13;;;;;;;;;;;;;;;21.06;51.17;99321.22;2101014;28;4081;-31
2021/05/05 05:10:14;;;;;;;;;;;;;;;21.06;51.18;99312.69;2100925;28;4048;-30
2021/05/05 05:11:15;;;;;;;;;;;;;;;21.05;51.17;99309.03;2102272;28;3896;-32
2021/05/05 05:12:16;;;;;;;;;;;;;;;21.06;51.11;99324.06;2101791;28;3877;-29
2021/05/05 05:13:17;;;;;;;;;;;;;;;21.05;51.17;99316.75;2101381;28;3895;-30
2021/05/05 05:14:18;;;;;;;;;;;;;;;21.06;51.08;99321.22;2101621;28;3881;-32
2021/05/05 05:15:19;;;;;;;;;;;;;;;21.06;51.09;99322.06;2101006;28;3919;-29
2021/05/05 05:16:20;;;;;;;;;;;;;;;21.06;51.18;99329.75;2101421;28;3850;-32
2021/05/05 05:17:22;;;;;;;;;;;;;;;21.06;51.14;99327.75;2101618;28;4118;-31
2021/05/05 05:18:23;;;;;;;;;;;;;;;21.06;51.14;99324.91;2101348;28;4119;-33
2021/05/05 05:19:24;;;;;;;;;;;;;;;21.07;51.17;99329.38;2100667;28;3914;-33
2021/05/05 05:20:25;;;;;;;;;;;;;;;21.06;51.10;99332.59;2101319;28;3905;-31
2021/05/05 05:21:25;;;;;;;;;;;;;;;21.06;51.13;99326.91;2101155;28;4038;-34
2021/05/05 05:22:28;;;;;;;;;;;;;;;21.07;51.27;99322.88;2102154;28;4030;-31
2021/05/05 05:23:29;;;;;;;;;;;;;;;21.07;51.35;99325.72;2100991;28;3918;-33
2021/05/05 05:24:30;;;;;;;;;;;;;;;21.07;51.18;99323.69;2101046;28;3907;-31